createdAt,value
2019-05-12T00:01:38.786Z,17.77
2019-05-12T00:04:13.170Z,17.17
2019-05-12T00:06:47.900Z,18.93
2019-05-12T00:09:21.504Z,17.63
2019-05-12T00:11:55.043Z,18.00
2019-05-12T00:14:28.733Z,16.97
2019-05-12T00:17:04.943Z,17.27
2019-05-12T00:19:41.131Z,16.67
2019-05-12T00:22:15.235Z,16.73
2019-05-12T00:24:50.916Z,15.87
2019-05-12T00:27:28.099Z,15.88
2019-05-12T00:30:02.580Z,16.23
2019-05-12T00:32:38.560Z,15.03
2019-05-12T00:35:13.514Z,14.17
2019-05-12T00:37:48.631Z,14.97
2019-05-12T00:40:22.508Z,15.83
2019-05-12T00:42:57.884Z,15.40
2019-05-12T00:45:31.534Z,14.50
2019-05-12T00:48:05.450Z,14.10
2019-05-12T00:50:40.177Z,14.28
2019-05-12T00:53:13.857Z,13.77
2019-05-12T00:55:52.410Z,13.50
2019-05-12T00:58:28.722Z,14.17
2019-05-12T01:01:03.553Z,14.30
2019-05-12T01:03:38.292Z,13.23
2019-05-12T01:06:14.041Z,13.93
2019-05-12T01:08:54.829Z,15.20
2019-05-12T01:11:32.839Z,15.60
2019-05-12T01:14:08.591Z,15.87
2019-05-12T01:16:42.015Z,15.13
2019-05-12T01:19:18.327Z,15.57
2019-05-12T01:21:52.615Z,16.37
2019-05-12T01:24:28.161Z,16.60
2019-05-12T01:27:03.721Z,16.93
2019-05-12T01:29:38.568Z,16.60
2019-05-12T01:32:12.321Z,17.87
2019-05-12T01:34:49.934Z,17.17
2019-05-12T01:37:24.668Z,16.73
2019-05-12T01:40:01.357Z,15.20
2019-05-12T01:42:42.682Z,15.63
2019-05-12T01:45:21.726Z,16.20
2019-05-12T01:47:59.130Z,15.93
2019-05-12T01:50:38.309Z,13.83
2019-05-12T01:53:11.577Z,14.00
2019-05-12T01:55:45.514Z,13.50
2019-05-12T01:58:19.586Z,12.83
2019-05-12T02:00:53.877Z,12.10
2019-05-12T02:03:28.453Z,11.95
2019-05-12T02:06:03.431Z,11.57
2019-05-12T02:08:40.421Z,11.63
2019-05-12T02:11:14.139Z,12.23
2019-05-12T02:13:49.511Z,12.97
2019-05-12T02:16:25.339Z,12.13
2019-05-12T02:19:02.793Z,11.63
2019-05-12T02:21:38.234Z,12.30
2019-05-12T02:24:23.475Z,11.53
2019-05-12T02:26:48.669Z,11.90
2019-05-12T02:29:23.862Z,12.00
2019-05-12T02:31:59.059Z,11.35
2019-05-12T02:34:34.947Z,10.97
2019-05-12T02:37:09.069Z,11.07
2019-05-12T02:39:44.920Z,10.20
2019-05-12T02:42:18.559Z,9.47
2019-05-12T02:44:55.115Z,10.15
2019-05-12T02:47:29.920Z,9.43
2019-05-12T02:50:05.354Z,9.25
2019-05-12T02:52:44.564Z,8.60
2019-05-12T02:55:19.891Z,8.50
2019-05-12T02:58:05.026Z,7.85
2019-05-12T03:00:40.523Z,7.97
2019-05-12T03:03:16.261Z,9.67
2019-05-12T03:05:54.683Z,8.23
2019-05-12T03:08:28.037Z,10.28
2019-05-12T03:11:06.022Z,7.35
2019-05-12T03:13:39.790Z,6.77
2019-05-12T03:16:15.035Z,7.10
2019-05-12T03:18:50.533Z,7.03
2019-05-12T03:21:25.496Z,7.60
2019-05-12T03:23:59.556Z,6.37
2019-05-12T03:26:34.698Z,13.15
2019-05-12T03:29:09.103Z,11.47
2019-05-12T03:31:47.890Z,6.73
2019-05-12T03:34:19.896Z,8.83
2019-05-12T03:36:58.564Z,7.70
2019-05-12T03:39:28.879Z,7.78
2019-05-12T03:42:05.068Z,7.27
2019-05-12T03:44:38.198Z,7.57
2019-05-12T03:47:14.418Z,7.97
2019-05-12T03:49:48.664Z,7.65
2019-05-12T03:52:24.607Z,8.43
2019-05-12T03:55:00.207Z,8.10
2019-05-12T03:57:34.532Z,7.70
2019-05-12T04:00:11.253Z,7.30
2019-05-12T04:02:45.998Z,7.23
2019-05-12T04:05:20.228Z,7.77
2019-05-12T04:07:54.688Z,7.40
2019-05-12T04:10:29.177Z,7.00
2019-05-12T04:13:04.559Z,7.00
2019-05-12T04:15:38.275Z,6.30
2019-05-12T04:18:16.001Z,6.10
2019-05-12T04:20:56.670Z,6.13
2019-05-12T04:23:34.633Z,6.57
2019-05-12T04:26:13.285Z,6.83
2019-05-12T04:28:48.475Z,6.40
2019-05-12T04:31:24.918Z,6.67
2019-05-12T04:34:00.105Z,6.70
2019-05-12T04:36:38.207Z,6.75
2019-05-12T04:39:16.953Z,6.70
2019-05-12T04:42:00.796Z,6.80
2019-05-12T04:44:38.238Z,7.08
2019-05-12T04:47:25.236Z,7.10
2019-05-12T04:50:00.340Z,6.80
2019-05-12T04:52:38.673Z,7.17
2019-05-12T04:55:16.802Z,7.63
2019-05-12T04:58:04.081Z,6.87
2019-05-12T05:00:36.964Z,7.12
2019-05-12T05:03:14.329Z,6.63
2019-05-12T05:05:54.899Z,10.77
2019-05-12T05:08:34.861Z,8.10
2019-05-12T05:11:09.513Z,6.37
2019-05-12T05:13:44.388Z,6.60
2019-05-12T05:16:18.187Z,7.23
2019-05-12T05:18:54.419Z,9.07
2019-05-12T05:21:29.499Z,6.97
2019-05-12T05:24:06.436Z,7.35
2019-05-12T05:26:44.224Z,7.37
2019-05-12T05:29:19.356Z,6.17
2019-05-12T05:31:56.148Z,6.55
2019-05-12T05:34:29.999Z,6.90
2019-05-12T05:37:05.198Z,6.65
2019-05-12T05:39:47.896Z,6.93
2019-05-12T05:42:16.573Z,7.23
2019-05-12T05:44:54.184Z,6.20
2019-05-12T05:47:33.593Z,6.93
2019-05-12T05:50:08.930Z,6.72
2019-05-12T05:52:43.732Z,6.70
2019-05-12T05:55:20.305Z,6.80
2019-05-12T05:57:53.875Z,6.47
2019-05-12T06:00:30.305Z,6.08
2019-05-12T06:03:17.018Z,6.67
2019-05-12T06:05:43.816Z,6.80
2019-05-12T06:08:20.823Z,7.23
2019-05-12T06:10:53.895Z,6.77
2019-05-12T06:13:31.944Z,6.92
2019-05-12T06:16:29.380Z,6.30
2019-05-12T06:19:04.507Z,6.28
2019-05-12T06:21:39.238Z,6.42
2019-05-12T06:24:19.875Z,6.47
2019-05-12T06:26:57.790Z,6.00
2019-05-12T06:29:29.812Z,6.57
2019-05-12T06:32:10.827Z,6.45
2019-05-12T06:34:44.674Z,6.60
2019-05-12T06:40:40.450Z,6.80
2019-05-12T06:43:09.127Z,6.77
2019-05-12T06:49:10.326Z,6.28
2019-05-12T06:51:44.316Z,6.12
2019-05-12T06:54:19.006Z,6.30
2019-05-12T06:57:10.236Z,6.27
2019-05-12T06:59:36.660Z,6.70
2019-05-12T07:02:13.846Z,6.10
2019-05-12T07:04:54.207Z,6.00
2019-05-12T07:07:27.663Z,6.33
2019-05-12T07:10:11.557Z,6.60
2019-05-12T07:12:56.021Z,6.60
2019-05-12T07:15:16.662Z,6.70
2019-05-12T07:18:17.244Z,6.30
2019-05-12T07:20:50.020Z,6.33
2019-05-12T07:23:29.837Z,5.90
2019-05-12T07:26:06.742Z,6.58
2019-05-12T07:28:40.096Z,5.80
2019-05-12T07:31:14.069Z,5.72
2019-05-12T07:33:54.218Z,6.00
2019-05-12T07:42:39.145Z,6.47
2019-05-12T07:45:22.173Z,6.33
2019-05-12T07:47:54.106Z,6.20
2019-05-12T07:50:29.159Z,6.57
2019-05-12T07:53:04.382Z,6.67
2019-05-12T07:55:39.579Z,6.30
2019-05-12T07:58:33.810Z,6.20
2019-05-12T08:01:16.110Z,5.85
2019-05-12T08:04:04.344Z,5.63
2019-05-12T08:06:41.874Z,6.40
2019-05-12T08:09:24.239Z,6.80
2019-05-12T08:11:58.390Z,6.70
2019-05-12T08:14:33.159Z,6.35
2019-05-12T08:17:11.017Z,6.47
2019-05-12T08:19:44.358Z,6.20
2019-05-12T08:22:25.020Z,6.30
2019-05-12T08:24:57.117Z,6.17
2019-05-12T08:27:34.033Z,5.70
2019-05-12T08:30:09.397Z,6.08
2019-05-12T08:32:49.058Z,5.72
2019-05-12T08:35:29.357Z,6.00
2019-05-12T08:37:58.882Z,5.67
2019-05-12T08:40:39.847Z,5.78
2019-05-12T08:43:11.151Z,5.83
2019-05-12T08:45:47.288Z,5.60
2019-05-12T08:48:24.788Z,5.53
2019-05-12T08:51:05.353Z,5.47
2019-05-12T08:53:36.649Z,5.70
2019-05-12T08:56:18.667Z,5.62
2019-05-12T08:58:51.361Z,5.90
2019-05-12T09:01:38.390Z,5.58
2019-05-12T09:04:18.268Z,5.70
2019-05-12T09:06:56.700Z,5.87
2019-05-12T09:09:30.845Z,5.90
2019-05-12T09:12:19.013Z,5.33
2019-05-12T09:14:57.073Z,5.73
2019-05-12T09:17:42.890Z,5.62
2019-05-12T09:20:20.532Z,6.22
2019-05-12T09:23:04.897Z,6.27
2019-05-12T09:25:43.936Z,6.58
2019-05-12T09:28:46.443Z,6.10
2019-05-12T09:31:14.121Z,6.33
2019-05-12T09:34:11.072Z,6.07
2019-05-12T09:36:44.180Z,6.50
2019-05-12T09:39:27.194Z,5.97
2019-05-12T09:42:05.604Z,6.07
2019-05-12T09:44:41.404Z,6.13
2019-05-12T09:47:23.113Z,6.60
2019-05-12T09:49:55.898Z,6.50
2019-05-12T09:52:36.153Z,6.03
2019-05-12T09:55:11.010Z,6.20
2019-05-12T09:57:45.386Z,5.97
2019-05-12T10:00:23.908Z,6.60
2019-05-12T10:02:59.661Z,6.47
2019-05-12T10:05:41.033Z,6.55
2019-05-12T10:08:13.680Z,6.45
2019-05-12T10:10:53.521Z,6.60
2019-05-12T10:13:30.086Z,6.97
2019-05-12T10:16:04.930Z,6.42
2019-05-12T10:18:36.876Z,6.92
2019-05-12T10:21:15.576Z,6.12
2019-05-12T10:23:51.542Z,6.53
2019-05-12T10:26:25.446Z,6.77
2019-05-12T10:29:17.576Z,6.23
2019-05-12T10:31:46.496Z,6.70
2019-05-12T10:34:23.980Z,6.90
2019-05-12T10:36:57.879Z,7.87
2019-05-12T10:39:36.388Z,6.80
2019-05-12T10:42:10.396Z,7.23
2019-05-12T10:44:49.278Z,8.23
2019-05-12T10:47:24.022Z,7.57
2019-05-12T10:50:00.970Z,8.00
2019-05-12T10:52:39.136Z,7.80
2019-05-12T10:55:13.452Z,8.35
2019-05-12T10:57:52.900Z,8.23
2019-05-12T11:00:26.840Z,8.97
2019-05-12T11:03:10.230Z,8.47
2019-05-12T11:05:38.233Z,9.10
2019-05-12T11:08:14.368Z,8.97
2019-05-12T11:10:50.279Z,9.30
2019-05-12T11:13:24.844Z,9.63
2019-05-12T11:16:03.821Z,10.10
2019-05-12T11:18:37.368Z,9.90
2019-05-12T11:21:11.249Z,11.97
2019-05-12T11:23:48.431Z,10.50
2019-05-12T11:26:27.893Z,9.77
2019-05-12T11:29:03.789Z,9.40
2019-05-12T11:31:39.550Z,10.03
2019-05-12T11:34:16.031Z,10.08
2019-05-12T11:36:54.566Z,10.43
2019-05-12T11:39:30.706Z,9.90
2019-05-12T11:42:09.511Z,10.40
2019-05-12T11:44:44.643Z,10.30
2019-05-12T11:47:24.369Z,10.07
2019-05-12T11:49:58.522Z,10.27
2019-05-12T11:52:33.516Z,10.47
2019-05-12T11:55:13.375Z,10.20
2019-05-12T11:57:47.817Z,10.30
2019-05-12T12:00:27.056Z,10.85
2019-05-12T12:03:12.306Z,10.83
2019-05-12T12:05:39.655Z,10.37
2019-05-12T12:08:19.108Z,10.27
2019-05-12T12:10:59.306Z,10.27
2019-05-12T12:13:36.863Z,10.70
2019-05-12T12:16:20.536Z,10.77
2019-05-12T12:19:02.764Z,11.10
2019-05-12T12:21:40.567Z,10.63
2019-05-12T12:24:30.040Z,9.83
2019-05-12T12:26:59.938Z,10.43
2019-05-12T12:29:38.717Z,10.60
2019-05-12T12:32:18.407Z,9.73
2019-05-12T12:34:54.276Z,10.00
2019-05-12T12:37:29.457Z,22.03
2019-05-12T12:40:08.402Z,11.53
2019-05-12T12:42:46.268Z,9.58
2019-05-12T12:45:23.621Z,9.10
2019-05-12T12:48:07.008Z,9.17
2019-05-12T12:50:48.438Z,9.38
2019-05-12T12:53:27.175Z,9.37
2019-05-12T12:56:01.173Z,9.25
2019-05-12T12:58:55.504Z,9.50
2019-05-12T13:01:35.784Z,14.10
2019-05-12T13:04:13.297Z,10.98
2019-05-12T13:06:49.033Z,9.17
2019-05-12T13:09:26.240Z,9.07
2019-05-12T13:12:05.958Z,9.73
2019-05-12T13:14:44.201Z,9.90
2019-05-12T13:17:15.465Z,10.32
2019-05-12T13:19:54.023Z,10.97
2019-05-12T13:22:29.579Z,10.70
2019-05-12T13:25:04.350Z,10.43
2019-05-12T13:27:42.409Z,11.50
2019-05-12T13:30:21.258Z,11.78
2019-05-12T13:32:54.548Z,11.73
2019-05-12T13:35:34.078Z,11.65
2019-05-12T13:38:06.618Z,11.33
2019-05-12T13:40:44.171Z,11.45
2019-05-12T13:43:19.512Z,10.93
2019-05-12T13:45:53.624Z,12.00
2019-05-12T13:48:38.157Z,11.30
2019-05-12T13:51:15.780Z,11.27
2019-05-12T13:53:50.500Z,11.33
2019-05-12T13:56:35.237Z,10.97
2019-05-12T13:59:12.187Z,10.82
2019-05-12T14:01:51.052Z,10.57
2019-05-12T14:04:27.795Z,10.48
2019-05-12T14:07:03.963Z,9.93
2019-05-12T14:09:40.882Z,10.82
2019-05-12T14:12:15.727Z,9.90
2019-05-12T14:14:52.702Z,10.53
2019-05-12T14:17:37.281Z,10.20
2019-05-12T14:20:14.540Z,10.20
2019-05-12T14:22:47.407Z,10.50
2019-05-12T14:25:30.438Z,10.97
2019-05-12T14:28:05.388Z,10.50
2019-05-12T14:30:41.193Z,9.95
2019-05-12T14:33:13.592Z,10.40
2019-05-12T14:35:48.780Z,10.00
2019-05-12T14:38:25.423Z,9.90
2019-05-12T14:41:01.236Z,9.37
2019-05-12T14:43:34.112Z,9.83
2019-05-12T14:46:10.448Z,9.88
2019-05-12T14:48:50.467Z,9.70
2019-05-12T14:51:27.107Z,9.38
2019-05-12T14:54:00.809Z,9.40
2019-05-12T14:56:34.152Z,9.17
2019-05-12T14:59:09.231Z,9.27
2019-05-12T15:01:56.930Z,9.73
2019-05-12T15:04:29.770Z,9.30
2019-05-12T15:07:05.923Z,9.77
2019-05-12T15:09:36.990Z,8.90
2019-05-12T15:12:11.211Z,8.67
2019-05-12T15:14:47.926Z,8.83
2019-05-12T15:17:28.244Z,9.60
2019-05-12T15:20:10.455Z,9.80
2019-05-12T15:22:51.488Z,9.50
2019-05-12T15:25:35.473Z,9.50
2019-05-12T15:28:07.440Z,9.78
2019-05-12T15:30:49.021Z,9.47
2019-05-12T15:33:24.260Z,9.93
2019-05-12T15:36:04.472Z,9.50
2019-05-12T15:38:39.039Z,9.93
2019-05-12T15:41:15.722Z,10.13
2019-05-12T15:43:56.889Z,10.30
2019-05-12T15:46:40.816Z,9.98
2019-05-12T15:49:10.215Z,9.53
2019-05-12T15:51:54.383Z,10.27
2019-05-12T15:54:30.989Z,9.70
2019-05-12T15:57:06.020Z,9.50
2019-05-12T15:59:43.488Z,9.73
2019-05-12T16:02:23.371Z,9.40
2019-05-12T16:04:56.196Z,9.47
2019-05-12T16:07:37.905Z,10.13
2019-05-12T16:10:14.868Z,9.83
2019-05-12T16:12:50.155Z,9.10
2019-05-12T16:15:23.992Z,9.00
2019-05-12T16:17:59.414Z,9.30
2019-05-12T16:20:33.706Z,9.20
2019-05-12T16:23:08.658Z,9.47
2019-05-12T16:25:44.293Z,9.23
2019-05-12T16:28:23.462Z,8.93
2019-05-12T16:30:53.604Z,8.93
2019-05-12T16:33:29.324Z,9.17
2019-05-12T16:36:09.442Z,10.45
2019-05-12T16:38:40.463Z,9.60
2019-05-12T16:41:14.455Z,9.93
2019-05-12T16:43:48.253Z,10.20
2019-05-12T16:46:23.555Z,9.47
2019-05-12T16:48:57.446Z,9.63
2019-05-12T16:51:33.144Z,9.65
2019-05-12T16:54:06.715Z,9.80
2019-05-12T16:56:40.710Z,9.30
2019-05-12T16:59:19.648Z,9.60
2019-05-12T17:01:54.141Z,10.53
2019-05-12T17:04:28.203Z,9.90
2019-05-12T17:07:01.991Z,9.50
2019-05-12T17:09:35.920Z,10.65
2019-05-12T17:12:09.327Z,11.07
2019-05-12T17:14:48.210Z,10.88
2019-05-12T17:17:21.003Z,11.53
2019-05-12T17:19:54.814Z,10.93
2019-05-12T17:22:28.698Z,11.63
2019-05-12T17:25:04.949Z,11.17
2019-05-12T17:27:38.814Z,10.95
2019-05-12T17:30:15.535Z,11.40
2019-05-12T17:32:57.963Z,10.97
2019-05-12T17:35:29.408Z,10.63
2019-05-12T17:38:00.911Z,11.40
2019-05-12T17:40:35.834Z,10.80
2019-05-12T17:43:12.037Z,11.57
2019-05-12T17:45:50.485Z,11.33
2019-05-12T17:48:23.255Z,11.23
2019-05-12T17:50:56.156Z,10.10
2019-05-12T17:53:30.423Z,10.97
2019-05-12T17:56:04.971Z,10.78
2019-05-12T17:58:44.416Z,10.03
2019-05-12T18:01:15.476Z,11.07
2019-05-12T18:03:50.709Z,12.37
2019-05-12T18:06:29.564Z,11.77
2019-05-12T18:09:01.206Z,12.95
2019-05-12T18:11:34.707Z,12.27
2019-05-12T18:14:10.231Z,15.08
2019-05-12T18:16:44.381Z,17.63
2019-05-12T18:19:19.724Z,17.50
2019-05-12T18:21:54.943Z,16.97
2019-05-12T18:24:28.800Z,18.07
2019-05-12T18:27:07.188Z,17.23
2019-05-12T18:29:39.552Z,17.33
2019-05-12T18:32:13.765Z,18.40
2019-05-12T18:34:47.451Z,20.17
2019-05-12T18:37:23.929Z,20.87
2019-05-12T18:39:56.356Z,19.77
2019-05-12T18:42:30.639Z,20.13
2019-05-12T18:45:11.833Z,19.60
2019-05-12T18:47:45.043Z,19.17
2019-05-12T18:50:20.676Z,23.07
2019-05-12T18:52:57.533Z,32.90
2019-05-12T18:55:35.801Z,29.27
2019-05-12T18:58:06.654Z,29.72
2019-05-12T19:00:40.399Z,27.93
2019-05-12T19:03:14.225Z,29.10
2019-05-12T19:05:49.191Z,29.03
2019-05-12T19:08:23.651Z,27.27
2019-05-12T19:10:57.368Z,27.20
2019-05-12T19:13:33.842Z,30.03
2019-05-12T19:16:14.412Z,30.20
2019-05-12T19:18:48.859Z,30.27
2019-05-12T19:21:23.618Z,33.30
2019-05-12T19:23:57.822Z,34.80
2019-05-12T19:26:38.282Z,36.13
2019-05-12T19:29:08.746Z,36.00
2019-05-12T19:31:51.470Z,33.60
2019-05-12T19:34:22.704Z,37.93
2019-05-12T19:36:53.436Z,35.97
2019-05-12T19:39:27.306Z,38.57
2019-05-12T19:42:03.589Z,39.25
2019-05-12T19:44:35.866Z,42.10
2019-05-12T19:47:09.559Z,42.27
2019-05-12T19:49:50.091Z,43.35
2019-05-12T19:52:19.791Z,46.07
2019-05-12T19:54:53.429Z,46.90
2019-05-12T19:57:27.689Z,45.10
2019-05-12T20:00:01.438Z,45.13
2019-05-12T20:02:35.442Z,42.00
2019-05-12T20:05:15.061Z,42.17
2019-05-12T20:07:46.394Z,40.97
2019-05-12T20:10:20.251Z,40.53
2019-05-12T20:12:54.571Z,40.00
2019-05-12T20:15:30.135Z,37.63
2019-05-12T20:18:04.327Z,39.67
2019-05-12T20:20:41.678Z,38.30
2019-05-12T20:23:14.178Z,38.67
2019-05-12T20:25:48.393Z,39.63
2019-05-12T20:28:24.198Z,37.47
2019-05-12T20:31:02.840Z,39.42
2019-05-12T20:33:34.724Z,37.47
2019-05-12T20:36:08.289Z,36.00
2019-05-12T20:38:44.205Z,38.53
2019-05-12T20:41:22.570Z,39.93
2019-05-12T20:43:53.700Z,40.70
2019-05-12T20:46:27.499Z,37.03
2019-05-12T20:49:06.016Z,36.87
2019-05-12T20:51:36.236Z,38.17
2019-05-12T20:54:16.112Z,37.80
2019-05-12T20:56:45.912Z,36.30
2019-05-12T20:59:23.391Z,36.80
2019-05-12T21:01:56.379Z,38.83
2019-05-12T21:04:31.632Z,37.15
2019-05-12T21:07:04.808Z,38.13
2019-05-12T21:09:38.467Z,36.87
2019-05-12T21:12:13.826Z,40.08
2019-05-12T21:14:51.353Z,36.20
2019-05-12T21:17:38.992Z,35.27
2019-05-12T21:19:59.480Z,34.83
2019-05-12T21:22:34.374Z,34.23
2019-05-12T21:25:10.723Z,37.63
2019-05-12T21:27:47.504Z,37.03
2019-05-12T21:30:18.721Z,37.53
2019-05-12T21:32:59.060Z,33.70
2019-05-12T21:35:33.776Z,36.13
2019-05-12T21:38:04.050Z,36.23
2019-05-12T21:40:37.270Z,36.13
2019-05-12T21:43:13.629Z,36.53
2019-05-12T21:45:47.543Z,35.68
2019-05-12T21:48:26.537Z,40.00
2019-05-12T21:50:56.698Z,41.97
2019-05-12T21:53:34.317Z,35.25
2019-05-12T21:56:07.039Z,38.87
2019-05-12T21:58:53.439Z,39.97
2019-05-12T22:01:19.668Z,39.70
2019-05-12T22:03:59.028Z,39.97
2019-05-12T22:06:30.527Z,37.23
2019-05-12T22:09:07.067Z,40.30
2019-05-12T22:11:42.289Z,38.77
2019-05-12T22:14:14.905Z,40.27
2019-05-12T22:16:48.774Z,38.87
2019-05-12T22:19:22.446Z,40.37
2019-05-12T22:22:00.780Z,40.07
2019-05-12T22:24:38.509Z,41.10
2019-05-12T22:27:16.197Z,39.18
2019-05-12T22:29:45.186Z,40.33
2019-05-12T22:32:19.198Z,40.35
2019-05-12T22:34:54.459Z,41.43
2019-05-12T22:37:34.751Z,40.47
2019-05-12T22:40:06.155Z,41.53
2019-05-12T22:42:40.515Z,39.65
2019-05-12T22:45:15.362Z,40.80
2019-05-12T22:47:55.232Z,42.00
2019-05-12T22:50:32.802Z,40.27
2019-05-12T22:53:04.456Z,40.17
2019-05-12T22:55:38.485Z,38.63
2019-05-12T22:58:20.650Z,39.70
2019-05-12T23:00:51.312Z,39.37
2019-05-12T23:03:24.459Z,39.63
2019-05-12T23:06:01.556Z,39.77
2019-05-12T23:08:38.624Z,38.43
2019-05-12T23:11:08.629Z,37.50
2019-05-12T23:13:44.216Z,38.30
2019-05-12T23:16:19.273Z,38.07
2019-05-12T23:18:54.831Z,36.27
2019-05-12T23:21:28.722Z,37.00
2019-05-12T23:24:03.777Z,38.17
2019-05-12T23:26:41.908Z,36.90
2019-05-12T23:29:14.444Z,36.00
2019-05-12T23:31:47.348Z,36.55
2019-05-12T23:34:23.069Z,38.00
2019-05-12T23:36:59.836Z,37.07
2019-05-12T23:39:37.929Z,37.93
2019-05-12T23:42:07.465Z,37.63
2019-05-12T23:44:40.947Z,37.57
2019-05-12T23:47:15.487Z,37.45
2019-05-12T23:49:49.361Z,38.43
2019-05-12T23:52:24.665Z,38.35
2019-05-12T23:55:00.427Z,36.28
2019-05-12T23:57:35.933Z,38.83
